sensor_id;sensor_type;location;lat;lon;timestamp;P1;durP1;ratioP1;P2;durP2;ratioP2
49730;SDS011;35622;52.008;5.426;2022-09-29T00:00:10;12.00;;;8.98;;
49730;SDS011;35622;52.008;5.426;2022-09-29T00:02:37;14.43;;;8.40;;
49730;SDS011;35622;52.008;5.426;2022-09-29T00:05:03;14.45;;;8.63;;
49730;SDS011;35622;52.008;5.426;2022-09-29T00:07:29;14.35;;;8.05;;
49730;SDS011;35622;52.008;5.426;2022-09-29T00:09:56;11.48;;;8.40;;
49730;SDS011;35622;52.008;5.426;2022-09-29T00:12:22;12.15;;;8.18;;
49730;SDS011;35622;52.008;5.426;2022-09-29T00:14:47;13.88;;;8.55;;
49730;SDS011;35622;52.008;5.426;2022-09-29T00:17:13;15.73;;;9.32;;
49730;SDS011;35622;52.008;5.426;2022-09-29T00:19:38;13.77;;;8.93;;
49730;SDS011;35622;52.008;5.426;2022-09-29T00:22:04;20.42;;;9.75;;
49730;SDS011;35622;52.008;5.426;2022-09-29T00:24:29;12.55;;;8.95;;
49730;SDS011;35622;52.008;5.426;2022-09-29T00:26:55;12.77;;;8.87;;
49730;SDS011;35622;52.008;5.426;2022-09-29T00:29:21;13.82;;;9.10;;
49730;SDS011;35622;52.008;5.426;2022-09-29T00:31:46;11.40;;;8.53;;
49730;SDS011;35622;52.008;5.426;2022-09-29T00:34:12;15.77;;;9.70;;
49730;SDS011;35622;52.008;5.426;2022-09-29T00:36:38;14.50;;;9.33;;
49730;SDS011;35622;52.008;5.426;2022-09-29T00:39:05;13.55;;;8.60;;
49730;SDS011;35622;52.008;5.426;2022-09-29T00:41:31;13.87;;;9.10;;
49730;SDS011;35622;52.008;5.426;2022-09-29T00:46:40;14.82;;;8.88;;
49730;SDS011;35622;52.008;5.426;2022-09-29T00:51:42;11.53;;;8.40;;
49730;SDS011;35622;52.008;5.426;2022-09-29T00:54:14;11.43;;;9.10;;
49730;SDS011;35622;52.008;5.426;2022-09-29T00:56:41;15.20;;;9.57;;
49730;SDS011;35622;52.008;5.426;2022-09-29T00:59:11;11.17;;;8.63;;
49730;SDS011;35622;52.008;5.426;2022-09-29T01:01:42;13.03;;;8.20;;
49730;SDS011;35622;52.008;5.426;2022-09-29T01:04:10;12.43;;;8.73;;
49730;SDS011;35622;52.008;5.426;2022-09-29T01:06:39;15.57;;;9.10;;
49730;SDS011;35622;52.008;5.426;2022-09-29T01:09:09;16.70;;;9.10;;
49730;SDS011;35622;52.008;5.426;2022-09-29T01:11:38;16.50;;;9.50;;
49730;SDS011;35622;52.008;5.426;2022-09-29T01:14:05;14.10;;;9.50;;
49730;SDS011;35622;52.008;5.426;2022-09-29T01:16:33;13.65;;;8.95;;
49730;SDS011;35622;52.008;5.426;2022-09-29T01:19:00;13.97;;;9.30;;
49730;SDS011;35622;52.008;5.426;2022-09-29T01:24:19;19.65;;;9.55;;
49730;SDS011;35622;52.008;5.426;2022-09-29T01:34:46;13.52;;;9.32;;
49730;SDS011;35622;52.008;5.426;2022-09-29T01:37:36;10.65;;;7.90;;
49730;SDS011;35622;52.008;5.426;2022-09-29T01:40:16;14.83;;;8.37;;
49730;SDS011;35622;52.008;5.426;2022-09-29T01:42:53;12.50;;;8.13;;
49730;SDS011;35622;52.008;5.426;2022-09-29T01:45:28;14.27;;;8.40;;
49730;SDS011;35622;52.008;5.426;2022-09-29T01:48:05;14.07;;;8.70;;
49730;SDS011;35622;52.008;5.426;2022-09-29T01:50:39;10.67;;;7.73;;
49730;SDS011;35622;52.008;5.426;2022-09-29T01:53:14;13.20;;;8.90;;
49730;SDS011;35622;52.008;5.426;2022-09-29T01:55:45;13.35;;;8.95;;
49730;SDS011;35622;52.008;5.426;2022-09-29T01:58:19;12.37;;;8.83;;
49730;SDS011;35622;52.008;5.426;2022-09-29T02:00:51;20.17;;;10.10;;
49730;SDS011;35622;52.008;5.426;2022-09-29T02:03:22;13.93;;;9.20;;
49730;SDS011;35622;52.008;5.426;2022-09-29T02:05:52;12.43;;;9.07;;
49730;SDS011;35622;52.008;5.426;2022-09-29T02:08:39;11.80;;;8.70;;
49730;SDS011;35622;52.008;5.426;2022-09-29T02:11:09;13.23;;;9.90;;
49730;SDS011;35622;52.008;5.426;2022-09-29T02:16:20;18.70;;;9.93;;
49730;SDS011;35622;52.008;5.426;2022-09-29T02:21:15;15.40;;;10.93;;
49730;SDS011;35622;52.008;5.426;2022-09-29T02:23:41;16.45;;;10.05;;
49730;SDS011;35622;52.008;5.426;2022-09-29T02:26:07;15.77;;;10.63;;
49730;SDS011;35622;52.008;5.426;2022-09-29T02:28:34;17.10;;;10.60;;
49730;SDS011;35622;52.008;5.426;2022-09-29T02:31:00;17.27;;;11.25;;
49730;SDS011;35622;52.008;5.426;2022-09-29T02:33:26;18.93;;;10.70;;
49730;SDS011;35622;52.008;5.426;2022-09-29T02:36:11;12.90;;;9.77;;
49730;SDS011;35622;52.008;5.426;2022-09-29T02:39:02;15.17;;;10.17;;
49730;SDS011;35622;52.008;5.426;2022-09-29T02:41:55;16.88;;;11.85;;
49730;SDS011;35622;52.008;5.426;2022-09-29T02:44:49;15.37;;;10.73;;
49730;SDS011;35622;52.008;5.426;2022-09-29T02:50:16;18.93;;;11.30;;
49730;SDS011;35622;52.008;5.426;2022-09-29T02:55:36;16.13;;;10.60;;
49730;SDS011;35622;52.008;5.426;2022-09-29T03:00:43;17.00;;;10.77;;
49730;SDS011;35622;52.008;5.426;2022-09-29T03:03:09;15.90;;;11.20;;
49730;SDS011;35622;52.008;5.426;2022-09-29T03:05:35;14.65;;;10.85;;
49730;SDS011;35622;52.008;5.426;2022-09-29T03:08:00;16.00;;;11.38;;
49730;SDS011;35622;52.008;5.426;2022-09-29T03:10:26;15.03;;;11.47;;
49730;SDS011;35622;52.008;5.426;2022-09-29T03:12:52;15.43;;;10.60;;
49730;SDS011;35622;52.008;5.426;2022-09-29T03:15:17;17.23;;;11.75;;
49730;SDS011;35622;52.008;5.426;2022-09-29T03:17:43;15.20;;;11.23;;
49730;SDS011;35622;52.008;5.426;2022-09-29T03:20:09;16.67;;;11.45;;
49730;SDS011;35622;52.008;5.426;2022-09-29T03:22:35;17.33;;;11.40;;
49730;SDS011;35622;52.008;5.426;2022-09-29T03:25:01;18.20;;;11.27;;
49730;SDS011;35622;52.008;5.426;2022-09-29T03:27:30;18.38;;;11.43;;
49730;SDS011;35622;52.008;5.426;2022-09-29T03:29:56;20.53;;;12.07;;
49730;SDS011;35622;52.008;5.426;2022-09-29T03:32:21;16.87;;;11.33;;
49730;SDS011;35622;52.008;5.426;2022-09-29T03:34:47;18.07;;;11.70;;
49730;SDS011;35622;52.008;5.426;2022-09-29T03:37:12;17.67;;;11.75;;
49730;SDS011;35622;52.008;5.426;2022-09-29T03:39:38;19.67;;;12.57;;
49730;SDS011;35622;52.008;5.426;2022-09-29T03:42:03;18.08;;;12.82;;
49730;SDS011;35622;52.008;5.426;2022-09-29T03:44:29;23.10;;;13.68;;
49730;SDS011;35622;52.008;5.426;2022-09-29T03:46:54;18.63;;;12.50;;
49730;SDS011;35622;52.008;5.426;2022-09-29T03:49:20;15.63;;;11.88;;
49730;SDS011;35622;52.008;5.426;2022-09-29T03:51:45;18.30;;;11.60;;
49730;SDS011;35622;52.008;5.426;2022-09-29T03:54:12;19.27;;;11.50;;
49730;SDS011;35622;52.008;5.426;2022-09-29T03:56:37;19.33;;;11.87;;
49730;SDS011;35622;52.008;5.426;2022-09-29T03:59:04;18.23;;;11.83;;
49730;SDS011;35622;52.008;5.426;2022-09-29T04:01:32;15.70;;;11.02;;
49730;SDS011;35622;52.008;5.426;2022-09-29T04:03:58;15.83;;;10.77;;
49730;SDS011;35622;52.008;5.426;2022-09-29T04:06:24;18.10;;;11.37;;
49730;SDS011;35622;52.008;5.426;2022-09-29T04:08:49;16.20;;;11.10;;
49730;SDS011;35622;52.008;5.426;2022-09-29T04:11:15;18.93;;;11.50;;
49730;SDS011;35622;52.008;5.426;2022-09-29T04:13:40;17.73;;;11.07;;
49730;SDS011;35622;52.008;5.426;2022-09-29T04:16:06;15.17;;;10.97;;
49730;SDS011;35622;52.008;5.426;2022-09-29T04:18:32;17.40;;;12.07;;
49730;SDS011;35622;52.008;5.426;2022-09-29T04:20:58;14.73;;;10.90;;
49730;SDS011;35622;52.008;5.426;2022-09-29T04:23:27;14.50;;;10.43;;
49730;SDS011;35622;52.008;5.426;2022-09-29T04:25:55;13.53;;;10.83;;
49730;SDS011;35622;52.008;5.426;2022-09-29T04:28:25;14.40;;;10.97;;
49730;SDS011;35622;52.008;5.426;2022-09-29T04:30:50;15.33;;;10.57;;
49730;SDS011;35622;52.008;5.426;2022-09-29T04:33:16;17.83;;;10.93;;
49730;SDS011;35622;52.008;5.426;2022-09-29T04:35:42;14.50;;;10.80;;
49730;SDS011;35622;52.008;5.426;2022-09-29T04:38:07;19.30;;;11.50;;
49730;SDS011;35622;52.008;5.426;2022-09-29T04:40:34;15.17;;;10.70;;
49730;SDS011;35622;52.008;5.426;2022-09-29T04:43:00;16.60;;;11.00;;
49730;SDS011;35622;52.008;5.426;2022-09-29T04:45:26;14.97;;;11.23;;
49730;SDS011;35622;52.008;5.426;2022-09-29T04:47:51;13.33;;;10.30;;
49730;SDS011;35622;52.008;5.426;2022-09-29T04:50:17;14.47;;;10.97;;
49730;SDS011;35622;52.008;5.426;2022-09-29T04:52:43;16.13;;;9.93;;
49730;SDS011;35622;52.008;5.426;2022-09-29T04:55:09;15.90;;;10.87;;
49730;SDS011;35622;52.008;5.426;2022-09-29T04:57:36;17.03;;;10.50;;
49730;SDS011;35622;52.008;5.426;2022-09-29T05:00:03;15.00;;;10.73;;
49730;SDS011;35622;52.008;5.426;2022-09-29T05:02:29;14.47;;;10.13;;
49730;SDS011;35622;52.008;5.426;2022-09-29T05:04:55;14.30;;;10.43;;
49730;SDS011;35622;52.008;5.426;2022-09-29T05:07:20;14.97;;;10.77;;
49730;SDS011;35622;52.008;5.426;2022-09-29T05:09:46;16.67;;;10.17;;
49730;SDS011;35622;52.008;5.426;2022-09-29T05:12:12;15.20;;;10.53;;
49730;SDS011;35622;52.008;5.426;2022-09-29T05:14:38;14.33;;;9.73;;
49730;SDS011;35622;52.008;5.426;2022-09-29T05:17:03;14.30;;;9.87;;
49730;SDS011;35622;52.008;5.426;2022-09-29T05:19:29;12.77;;;10.40;;
49730;SDS011;35622;52.008;5.426;2022-09-29T05:21:56;13.45;;;9.85;;
49730;SDS011;35622;52.008;5.426;2022-09-29T05:24:23;17.27;;;10.37;;
49730;SDS011;35622;52.008;5.426;2022-09-29T05:26:49;14.43;;;9.90;;
49730;SDS011;35622;52.008;5.426;2022-09-29T05:29:14;17.23;;;10.25;;
49730;SDS011;35622;52.008;5.426;2022-09-29T05:31:40;14.87;;;10.10;;
49730;SDS011;35622;52.008;5.426;2022-09-29T05:34:06;12.13;;;9.20;;
49730;SDS011;35622;52.008;5.426;2022-09-29T05:36:32;15.87;;;10.10;;
49730;SDS011;35622;52.008;5.426;2022-09-29T05:38:57;18.27;;;10.67;;
49730;SDS011;35622;52.008;5.426;2022-09-29T05:41:23;14.53;;;10.67;;
49730;SDS011;35622;52.008;5.426;2022-09-29T05:43:49;23.17;;;12.03;;
49730;SDS011;35622;52.008;5.426;2022-09-29T05:46:17;15.60;;;11.10;;
49730;SDS011;35622;52.008;5.426;2022-09-29T05:48:47;21.80;;;11.67;;
49730;SDS011;35622;52.008;5.426;2022-09-29T05:51:16;17.83;;;11.27;;
49730;SDS011;35622;52.008;5.426;2022-09-29T05:53:44;18.77;;;11.27;;
49730;SDS011;35622;52.008;5.426;2022-09-29T05:56:15;22.17;;;11.67;;
49730;SDS011;35622;52.008;5.426;2022-09-29T05:58:45;22.77;;;11.90;;
49730;SDS011;35622;52.008;5.426;2022-09-29T06:01:12;18.97;;;11.87;;
49730;SDS011;35622;52.008;5.426;2022-09-29T06:03:40;20.10;;;12.30;;
49730;SDS011;35622;52.008;5.426;2022-09-29T06:06:06;18.30;;;11.70;;
49730;SDS011;35622;52.008;5.426;2022-09-29T06:08:33;13.13;;;10.40;;
49730;SDS011;35622;52.008;5.426;2022-09-29T06:11:06;24.80;;;11.27;;
49730;SDS011;35622;52.008;5.426;2022-09-29T06:13:37;23.20;;;11.55;;
49730;SDS011;35622;52.008;5.426;2022-09-29T06:16:04;18.87;;;11.13;;
49730;SDS011;35622;52.008;5.426;2022-09-29T06:18:31;18.00;;;11.67;;
49730;SDS011;35622;52.008;5.426;2022-09-29T06:21:00;14.25;;;9.45;;
49730;SDS011;35622;52.008;5.426;2022-09-29T06:23:27;11.47;;;9.50;;
49730;SDS011;35622;52.008;5.426;2022-09-29T06:25:56;15.02;;;10.05;;
49730;SDS011;35622;52.008;5.426;2022-09-29T06:28:23;14.65;;;9.60;;
49730;SDS011;35622;52.008;5.426;2022-09-29T06:30:48;24.58;;;10.52;;
49730;SDS011;35622;52.008;5.426;2022-09-29T06:33:14;15.90;;;10.02;;
49730;SDS011;35622;52.008;5.426;2022-09-29T06:35:46;13.98;;;10.05;;
49730;SDS011;35622;52.008;5.426;2022-09-29T06:38:31;14.45;;;9.35;;
49730;SDS011;35622;52.008;5.426;2022-09-29T06:40:57;14.27;;;9.27;;
49730;SDS011;35622;52.008;5.426;2022-09-29T06:43:22;13.63;;;9.40;;
49730;SDS011;35622;52.008;5.426;2022-09-29T06:45:48;12.50;;;9.75;;
49730;SDS011;35622;52.008;5.426;2022-09-29T06:48:13;12.60;;;9.38;;
49730;SDS011;35622;52.008;5.426;2022-09-29T06:50:39;11.35;;;9.70;;
49730;SDS011;35622;52.008;5.426;2022-09-29T06:53:04;17.50;;;9.98;;
49730;SDS011;35622;52.008;5.426;2022-09-29T06:55:30;21.55;;;11.10;;
49730;SDS011;35622;52.008;5.426;2022-09-29T06:57:55;34.40;;;13.13;;
49730;SDS011;35622;52.008;5.426;2022-09-29T07:00:21;54.83;;;13.23;;
49730;SDS011;35622;52.008;5.426;2022-09-29T07:02:47;32.10;;;11.43;;
49730;SDS011;35622;52.008;5.426;2022-09-29T07:05:12;25.70;;;10.98;;
49730;SDS011;35622;52.008;5.426;2022-09-29T07:07:38;24.05;;;13.05;;
49730;SDS011;35622;52.008;5.426;2022-09-29T07:10:03;15.38;;;11.80;;
49730;SDS011;35622;52.008;5.426;2022-09-29T07:12:29;33.30;;;14.80;;
49730;SDS011;35622;52.008;5.426;2022-09-29T07:14:55;28.63;;;12.18;;
49730;SDS011;35622;52.008;5.426;2022-09-29T07:17:20;23.45;;;13.45;;
49730;SDS011;35622;52.008;5.426;2022-09-29T07:19:46;17.58;;;13.38;;
49730;SDS011;35622;52.008;5.426;2022-09-29T07:22:11;20.10;;;14.27;;
49730;SDS011;35622;52.008;5.426;2022-09-29T07:24:38;16.80;;;14.18;;
49730;SDS011;35622;52.008;5.426;2022-09-29T07:27:03;26.83;;;15.00;;
49730;SDS011;35622;52.008;5.426;2022-09-29T07:29:29;18.13;;;14.75;;
49730;SDS011;35622;52.008;5.426;2022-09-29T07:31:57;31.30;;;15.05;;
49730;SDS011;35622;52.008;5.426;2022-09-29T07:34:23;30.45;;;14.73;;
49730;SDS011;35622;52.008;5.426;2022-09-29T07:36:48;28.77;;;14.45;;
49730;SDS011;35622;52.008;5.426;2022-09-29T07:39:15;38.95;;;14.75;;
49730;SDS011;35622;52.008;5.426;2022-09-29T07:41:41;24.58;;;14.43;;
49730;SDS011;35622;52.008;5.426;2022-09-29T07:44:06;26.20;;;14.65;;
49730;SDS011;35622;52.008;5.426;2022-09-29T07:46:32;26.48;;;14.43;;
49730;SDS011;35622;52.008;5.426;2022-09-29T07:48:57;27.52;;;15.38;;
49730;SDS011;35622;52.008;5.426;2022-09-29T07:51:23;39.20;;;15.90;;
49730;SDS011;35622;52.008;5.426;2022-09-29T07:53:49;31.33;;;16.42;;
49730;SDS011;35622;52.008;5.426;2022-09-29T07:56:15;32.40;;;16.42;;
49730;SDS011;35622;52.008;5.426;2022-09-29T07:58:43;21.40;;;16.23;;
49730;SDS011;35622;52.008;5.426;2022-09-29T08:01:14;29.60;;;16.27;;
49730;SDS011;35622;52.008;5.426;2022-09-29T08:03:41;34.80;;;16.80;;
49730;SDS011;35622;52.008;5.426;2022-09-29T08:06:09;21.83;;;17.02;;
49730;SDS011;35622;52.008;5.426;2022-09-29T08:08:36;28.52;;;18.67;;
49730;SDS011;35622;52.008;5.426;2022-09-29T08:11:03;34.33;;;20.77;;
49730;SDS011;35622;52.008;5.426;2022-09-29T08:13:30;28.58;;;20.38;;
49730;SDS011;35622;52.008;5.426;2022-09-29T08:15:57;45.40;;;20.55;;
49730;SDS011;35622;52.008;5.426;2022-09-29T08:18:23;33.47;;;21.17;;
49730;SDS011;35622;52.008;5.426;2022-09-29T08:20:49;45.25;;;22.52;;
49730;SDS011;35622;52.008;5.426;2022-09-29T08:23:17;42.63;;;24.95;;
49730;SDS011;35622;52.008;5.426;2022-09-29T08:25:43;36.08;;;25.80;;
49730;SDS011;35622;52.008;5.426;2022-09-29T08:28:09;36.50;;;24.98;;
49730;SDS011;35622;52.008;5.426;2022-09-29T08:30:35;35.72;;;25.02;;
49730;SDS011;35622;52.008;5.426;2022-09-29T08:33:00;34.33;;;25.10;;
49730;SDS011;35622;52.008;5.426;2022-09-29T08:35:27;38.83;;;26.20;;
49730;SDS011;35622;52.008;5.426;2022-09-29T08:37:53;41.88;;;25.08;;
49730;SDS011;35622;52.008;5.426;2022-09-29T08:40:19;40.42;;;24.55;;
49730;SDS011;35622;52.008;5.426;2022-09-29T08:42:47;41.40;;;24.30;;
49730;SDS011;35622;52.008;5.426;2022-09-29T08:45:27;36.45;;;27.00;;
49730;SDS011;35622;52.008;5.426;2022-09-29T08:48:00;39.55;;;26.70;;
49730;SDS011;35622;52.008;5.426;2022-09-29T08:50:35;39.55;;;27.23;;
49730;SDS011;35622;52.008;5.426;2022-09-29T08:53:09;40.72;;;26.60;;
49730;SDS011;35622;52.008;5.426;2022-09-29T08:55:44;42.78;;;29.83;;
49730;SDS011;35622;52.008;5.426;2022-09-29T08:58:17;41.95;;;30.40;;
49730;SDS011;35622;52.008;5.426;2022-09-29T09:00:56;40.38;;;29.58;;
49730;SDS011;35622;52.008;5.426;2022-09-29T09:09:29;55.40;;;31.73;;
49730;SDS011;35622;52.008;5.426;2022-09-29T09:12:25;42.35;;;31.05;;
49730;SDS011;35622;52.008;5.426;2022-09-29T09:18:17;40.45;;;31.63;;
49730;SDS011;35622;52.008;5.426;2022-09-29T09:21:12;43.35;;;32.88;;
49730;SDS011;35622;52.008;5.426;2022-09-29T09:26:53;43.20;;;33.30;;
49730;SDS011;35622;52.008;5.426;2022-09-29T09:29:30;45.38;;;34.72;;
49730;SDS011;35622;52.008;5.426;2022-09-29T09:32:05;44.20;;;34.33;;
49730;SDS011;35622;52.008;5.426;2022-09-29T09:34:43;46.13;;;35.22;;
49730;SDS011;35622;52.008;5.426;2022-09-29T09:42:49;38.80;;;32.58;;
49730;SDS011;35622;52.008;5.426;2022-09-29T09:45:31;43.13;;;34.40;;
49730;SDS011;35622;52.008;5.426;2022-09-29T09:48:43;36.58;;;32.13;;
49730;SDS011;35622;52.008;5.426;2022-09-29T09:50:49;35.28;;;30.00;;
49730;SDS011;35622;52.008;5.426;2022-09-29T09:53:25;33.65;;;29.90;;
49730;SDS011;35622;52.008;5.426;2022-09-29T09:56:09;32.90;;;29.38;;
49730;SDS011;35622;52.008;5.426;2022-09-29T09:59:09;31.45;;;28.23;;
49730;SDS011;35622;52.008;5.426;2022-09-29T10:01:43;31.42;;;28.23;;
49730;SDS011;35622;52.008;5.426;2022-09-29T10:04:12;32.67;;;29.50;;
49730;SDS011;35622;52.008;5.426;2022-09-29T10:06:38;29.63;;;26.83;;
49730;SDS011;35622;52.008;5.426;2022-09-29T10:09:04;31.23;;;28.33;;
49730;SDS011;35622;52.008;5.426;2022-09-29T10:11:30;30.52;;;27.73;;
49730;SDS011;35622;52.008;5.426;2022-09-29T10:14:05;31.70;;;28.70;;
49730;SDS011;35622;52.008;5.426;2022-09-29T10:16:47;30.55;;;27.75;;
49730;SDS011;35622;52.008;5.426;2022-09-29T10:19:21;30.00;;;27.40;;
49730;SDS011;35622;52.008;5.426;2022-09-29T10:21:48;27.95;;;25.35;;
49730;SDS011;35622;52.008;5.426;2022-09-29T10:24:21;29.98;;;26.98;;
49730;SDS011;35622;52.008;5.426;2022-09-29T10:26:52;25.40;;;23.10;;
49730;SDS011;35622;52.008;5.426;2022-09-29T10:32:00;26.52;;;23.90;;
49730;SDS011;35622;52.008;5.426;2022-09-29T10:34:33;28.83;;;25.95;;
49730;SDS011;35622;52.008;5.426;2022-09-29T10:37:05;29.20;;;26.50;;
49730;SDS011;35622;52.008;5.426;2022-09-29T10:39:50;26.92;;;24.15;;
49730;SDS011;35622;52.008;5.426;2022-09-29T10:42:32;28.20;;;25.55;;
49730;SDS011;35622;52.008;5.426;2022-09-29T10:45:45;29.92;;;26.92;;
49730;SDS011;35622;52.008;5.426;2022-09-29T10:50:22;30.20;;;27.15;;
49730;SDS011;35622;52.008;5.426;2022-09-29T10:52:57;31.70;;;28.45;;
49730;SDS011;35622;52.008;5.426;2022-09-29T10:55:26;25.67;;;23.15;;
49730;SDS011;35622;52.008;5.426;2022-09-29T10:57:54;25.58;;;23.05;;
49730;SDS011;35622;52.008;5.426;2022-09-29T11:00:35;26.27;;;23.75;;
49730;SDS011;35622;52.008;5.426;2022-09-29T11:03:18;18.95;;;17.15;;
49730;SDS011;35622;52.008;5.426;2022-09-29T11:05:55;22.77;;;20.42;;
49730;SDS011;35622;52.008;5.426;2022-09-29T11:08:25;14.07;;;12.70;;
49730;SDS011;35622;52.008;5.426;2022-09-29T11:11:53;13.23;;;11.10;;
49730;SDS011;35622;52.008;5.426;2022-09-29T11:13:51;17.77;;;16.08;;
49730;SDS011;35622;52.008;5.426;2022-09-29T11:16:21;18.65;;;16.85;;
49730;SDS011;35622;52.008;5.426;2022-09-29T11:18:54;15.93;;;14.43;;
49730;SDS011;35622;52.008;5.426;2022-09-29T11:24:22;13.50;;;12.10;;
49730;SDS011;35622;52.008;5.426;2022-09-29T11:26:58;10.73;;;9.73;;
49730;SDS011;35622;52.008;5.426;2022-09-29T11:29:33;13.57;;;12.27;;
49730;SDS011;35622;52.008;5.426;2022-09-29T11:46:19;11.20;;;10.07;;
49730;SDS011;35622;52.008;5.426;2022-09-29T11:52:06;10.68;;;9.57;;
49730;SDS011;35622;52.008;5.426;2022-09-29T11:54:49;8.85;;;8.07;;
49730;SDS011;35622;52.008;5.426;2022-09-29T11:57:41;8.68;;;7.90;;
49730;SDS011;35622;52.008;5.426;2022-09-29T12:00:18;4.40;;;4.00;;
49730;SDS011;35622;52.008;5.426;2022-09-29T12:02:54;6.80;;;5.55;;
49730;SDS011;35622;52.008;5.426;2022-09-29T12:14:19;11.35;;;10.20;;
49730;SDS011;35622;52.008;5.426;2022-09-29T12:16:51;11.00;;;9.90;;
49730;SDS011;35622;52.008;5.426;2022-09-29T12:19:29;9.23;;;8.23;;
49730;SDS011;35622;52.008;5.426;2022-09-29T12:21:58;8.95;;;7.18;;
49730;SDS011;35622;52.008;5.426;2022-09-29T12:27:02;9.30;;;6.93;;
49730;SDS011;35622;52.008;5.426;2022-09-29T12:37:55;10.45;;;8.05;;
49730;SDS011;35622;52.008;5.426;2022-09-29T12:40:38;10.45;;;7.65;;
49730;SDS011;35622;52.008;5.426;2022-09-29T12:46:08;8.70;;;7.50;;
49730;SDS011;35622;52.008;5.426;2022-09-29T12:49:01;7.68;;;5.43;;
49730;SDS011;35622;52.008;5.426;2022-09-29T12:51:44;8.07;;;6.18;;
49730;SDS011;35622;52.008;5.426;2022-09-29T12:56:54;9.88;;;8.88;;
49730;SDS011;35622;52.008;5.426;2022-09-29T13:11:01;8.88;;;7.32;;
49730;SDS011;35622;52.008;5.426;2022-09-29T13:16:24;9.23;;;8.20;;
49730;SDS011;35622;52.008;5.426;2022-09-29T13:19:17;8.68;;;6.80;;
49730;SDS011;35622;52.008;5.426;2022-09-29T13:22:08;8.30;;;6.85;;
49730;SDS011;35622;52.008;5.426;2022-09-29T13:27:36;7.05;;;5.88;;
49730;SDS011;35622;52.008;5.426;2022-09-29T13:32:42;5.65;;;4.88;;
49730;SDS011;35622;52.008;5.426;2022-09-29T13:35:26;4.82;;;4.20;;
49730;SDS011;35622;52.008;5.426;2022-09-29T13:37:54;7.28;;;5.10;;
49730;SDS011;35622;52.008;5.426;2022-09-29T13:40:28;4.93;;;4.47;;
49730;SDS011;35622;52.008;5.426;2022-09-29T13:42:55;7.50;;;4.93;;
49730;SDS011;35622;52.008;5.426;2022-09-29T13:47:50;4.72;;;3.70;;
49730;SDS011;35622;52.008;5.426;2022-09-29T13:55:54;4.60;;;4.20;;
49730;SDS011;35622;52.008;5.426;2022-09-29T14:00:53;4.32;;;3.40;;
49730;SDS011;35622;52.008;5.426;2022-09-29T14:06:13;3.40;;;2.85;;
49730;SDS011;35622;52.008;5.426;2022-09-29T14:08:48;4.10;;;3.70;;
49730;SDS011;35622;52.008;5.426;2022-09-29T14:13:59;3.58;;;2.72;;
49730;SDS011;35622;52.008;5.426;2022-09-29T14:16:32;4.75;;;2.80;;
49730;SDS011;35622;52.008;5.426;2022-09-29T14:21:56;4.35;;;2.60;;
49730;SDS011;35622;52.008;5.426;2022-09-29T14:29:59;5.10;;;2.58;;
49730;SDS011;35622;52.008;5.426;2022-09-29T14:38:31;4.20;;;2.92;;
49730;SDS011;35622;52.008;5.426;2022-09-29T14:43:40;3.42;;;2.70;;
49730;SDS011;35622;52.008;5.426;2022-09-29T14:54:52;4.45;;;2.97;;
49730;SDS011;35622;52.008;5.426;2022-09-29T15:00:32;5.00;;;2.70;;
49730;SDS011;35622;52.008;5.426;2022-09-29T15:03:07;4.68;;;2.80;;
49730;SDS011;35622;52.008;5.426;2022-09-29T15:05:34;5.72;;;3.05;;
49730;SDS011;35622;52.008;5.426;2022-09-29T15:08:00;7.40;;;3.40;;
49730;SDS011;35622;52.008;5.426;2022-09-29T15:10:45;4.32;;;2.65;;
49730;SDS011;35622;52.008;5.426;2022-09-29T15:13:22;4.05;;;2.40;;
49730;SDS011;35622;52.008;5.426;2022-09-29T15:15:52;5.05;;;2.40;;
49730;SDS011;35622;52.008;5.426;2022-09-29T15:26:07;4.03;;;2.17;;
49730;SDS011;35622;52.008;5.426;2022-09-29T15:28:39;7.15;;;3.03;;
49730;SDS011;35622;52.008;5.426;2022-09-29T15:31:11;4.70;;;2.40;;
49730;SDS011;35622;52.008;5.426;2022-09-29T15:33:41;6.22;;;1.90;;
49730;SDS011;35622;52.008;5.426;2022-09-29T15:36:20;3.38;;;1.88;;
49730;SDS011;35622;52.008;5.426;2022-09-29T15:38:51;3.80;;;1.98;;
49730;SDS011;35622;52.008;5.426;2022-09-29T15:41:19;6.68;;;2.20;;
49730;SDS011;35622;52.008;5.426;2022-09-29T15:43:52;2.63;;;1.70;;
49730;SDS011;35622;52.008;5.426;2022-09-29T15:46:48;3.05;;;1.48;;
49730;SDS011;35622;52.008;5.426;2022-09-29T15:49:19;7.15;;;2.88;;
49730;SDS011;35622;52.008;5.426;2022-09-29T15:52:05;4.53;;;2.40;;
49730;SDS011;35622;52.008;5.426;2022-09-29T15:54:37;4.15;;;2.20;;
49730;SDS011;35622;52.008;5.426;2022-09-29T15:57:26;4.75;;;2.20;;
49730;SDS011;35622;52.008;5.426;2022-09-29T16:05:26;3.83;;;2.22;;
49730;SDS011;35622;52.008;5.426;2022-09-29T16:08:00;5.70;;;2.30;;
49730;SDS011;35622;52.008;5.426;2022-09-29T16:10:40;4.47;;;2.63;;
49730;SDS011;35622;52.008;5.426;2022-09-29T16:13:17;4.97;;;2.80;;
49730;SDS011;35622;52.008;5.426;2022-09-29T16:15:46;3.88;;;2.15;;
49730;SDS011;35622;52.008;5.426;2022-09-29T16:18:59;5.32;;;2.40;;
49730;SDS011;35622;52.008;5.426;2022-09-29T16:21:03;4.50;;;2.40;;
49730;SDS011;35622;52.008;5.426;2022-09-29T16:23:36;4.70;;;2.47;;
49730;SDS011;35622;52.008;5.426;2022-09-29T16:28:32;7.90;;;2.30;;
49730;SDS011;35622;52.008;5.426;2022-09-29T16:33:29;6.13;;;2.38;;
49730;SDS011;35622;52.008;5.426;2022-09-29T16:36:02;3.85;;;3.00;;
49730;SDS011;35622;52.008;5.426;2022-09-29T16:38:45;5.60;;;2.45;;
49730;SDS011;35622;52.008;5.426;2022-09-29T16:44:11;6.22;;;2.53;;
49730;SDS011;35622;52.008;5.426;2022-09-29T16:46:59;4.90;;;2.25;;
49730;SDS011;35622;52.008;5.426;2022-09-29T16:49:29;6.55;;;2.08;;
49730;SDS011;35622;52.008;5.426;2022-09-29T16:51:59;4.65;;;2.10;;
49730;SDS011;35622;52.008;5.426;2022-09-29T16:54:41;5.28;;;2.30;;
49730;SDS011;35622;52.008;5.426;2022-09-29T16:57:29;4.53;;;2.72;;
49730;SDS011;35622;52.008;5.426;2022-09-29T16:59:58;8.40;;;2.78;;
49730;SDS011;35622;52.008;5.426;2022-09-29T17:02:25;4.70;;;2.08;;
49730;SDS011;35622;52.008;5.426;2022-09-29T17:04:52;6.03;;;2.40;;
49730;SDS011;35622;52.008;5.426;2022-09-29T17:07:19;7.50;;;2.38;;
49730;SDS011;35622;52.008;5.426;2022-09-29T17:09:47;4.75;;;2.38;;
49730;SDS011;35622;52.008;5.426;2022-09-29T17:12:16;6.22;;;2.63;;
49730;SDS011;35622;52.008;5.426;2022-09-29T17:14:42;7.43;;;2.33;;
49730;SDS011;35622;52.008;5.426;2022-09-29T17:17:13;4.07;;;2.72;;
49730;SDS011;35622;52.008;5.426;2022-09-29T17:19:41;6.20;;;2.33;;
49730;SDS011;35622;52.008;5.426;2022-09-29T17:22:29;5.28;;;2.10;;
49730;SDS011;35622;52.008;5.426;2022-09-29T17:25:03;6.60;;;4.47;;
49730;SDS011;35622;52.008;5.426;2022-09-29T17:27:29;6.10;;;3.97;;
49730;SDS011;35622;52.008;5.426;2022-09-29T17:30:15;5.35;;;3.80;;
49730;SDS011;35622;52.008;5.426;2022-09-29T17:32:45;4.13;;;2.67;;
49730;SDS011;35622;52.008;5.426;2022-09-29T17:35:12;6.35;;;2.65;;
49730;SDS011;35622;52.008;5.426;2022-09-29T17:37:42;5.22;;;2.85;;
49730;SDS011;35622;52.008;5.426;2022-09-29T17:43:12;4.60;;;2.30;;
49730;SDS011;35622;52.008;5.426;2022-09-29T17:45:37;5.78;;;2.58;;
49730;SDS011;35622;52.008;5.426;2022-09-29T17:48:06;6.63;;;2.72;;
49730;SDS011;35622;52.008;5.426;2022-09-29T17:50:34;4.00;;;2.95;;
49730;SDS011;35622;52.008;5.426;2022-09-29T17:53:04;6.28;;;3.33;;
49730;SDS011;35622;52.008;5.426;2022-09-29T17:55:31;5.45;;;3.60;;
49730;SDS011;35622;52.008;5.426;2022-09-29T17:57:58;5.97;;;3.75;;